createdAt,value
2023-03-16T00:00:45.239Z,49.63
2023-03-16T00:01:45.233Z,47.21
2023-03-16T00:02:45.255Z,45.60
2023-03-16T00:03:45.206Z,46.25
2023-03-16T00:04:45.199Z,45.76
2023-03-16T00:05:45.183Z,45.12
2023-03-16T00:06:45.173Z,46.08
2023-03-16T00:07:45.160Z,45.28
2023-03-16T00:08:45.139Z,44.63
2023-03-16T00:09:45.145Z,43.99
2023-03-16T00:10:45.114Z,44.79
2023-03-16T00:11:46.108Z,46.89
2023-03-16T00:12:45.222Z,46.73
2023-03-16T00:13:45.103Z,44.31
2023-03-16T00:14:45.150Z,43.34
2023-03-16T00:15:45.086Z,43.34
2023-03-16T00:16:45.158Z,43.34
2023-03-16T00:17:45.083Z,43.67
2023-03-16T00:18:45.053Z,43.83
2023-03-16T00:19:45.039Z,46.57
2023-03-16T00:20:45.040Z,46.89
2023-03-16T00:21:45.026Z,45.44
2023-03-16T00:22:45.042Z,45.92
2023-03-16T00:23:45.012Z,45.60
2023-03-16T00:24:44.993Z,45.60
2023-03-16T00:25:45.010Z,46.41
2023-03-16T00:26:44.962Z,45.60
2023-03-16T00:27:44.950Z,47.21
2023-03-16T00:28:44.961Z,49.15
2023-03-16T00:29:44.996Z,46.57
2023-03-16T00:30:44.922Z,46.89
2023-03-16T00:31:45.015Z,46.25
2023-03-16T00:32:44.947Z,47.70
2023-03-16T00:33:44.891Z,47.53
2023-03-16T00:34:44.897Z,45.44
2023-03-16T00:35:44.887Z,44.31
2023-03-16T00:36:44.857Z,51.56
2023-03-16T00:37:44.894Z,46.08
2023-03-16T00:38:44.830Z,44.31
2023-03-16T00:39:44.818Z,47.53
2023-03-16T00:40:44.844Z,45.60
2023-03-16T00:41:44.798Z,52.21
2023-03-16T00:42:44.793Z,50.11
2023-03-16T00:43:44.820Z,45.76
2023-03-16T00:44:44.765Z,43.99
2023-03-16T00:45:44.835Z,46.25
2023-03-16T00:46:44.752Z,49.95
2023-03-16T00:47:44.745Z,48.34
2023-03-16T00:48:44.725Z,47.21
2023-03-16T00:49:44.737Z,47.21
2023-03-16T00:50:44.700Z,43.99
2023-03-16T00:51:44.702Z,45.60
2023-03-16T00:52:44.710Z,47.21
2023-03-16T00:53:44.691Z,48.02
2023-03-16T00:54:44.683Z,46.08
2023-03-16T00:55:44.788Z,50.43
2023-03-16T00:56:44.660Z,47.53
2023-03-16T00:57:44.629Z,48.98
2023-03-16T00:58:44.636Z,48.66
2023-03-16T00:59:44.615Z,49.95
2023-03-16T01:00:44.618Z,46.89
2023-03-16T01:01:44.619Z,44.96
2023-03-16T01:02:44.606Z,44.31
2023-03-16T01:03:44.620Z,44.63
2023-03-16T01:04:44.564Z,45.12
2023-03-16T01:05:44.584Z,45.76
2023-03-16T01:06:44.540Z,46.25
2023-03-16T01:07:44.545Z,45.12
2023-03-16T01:08:44.543Z,46.73
2023-03-16T01:09:44.520Z,43.83
2023-03-16T01:10:44.530Z,43.99
2023-03-16T01:11:44.498Z,43.18
2023-03-16T01:12:44.478Z,44.15
2023-03-16T01:13:44.490Z,44.31
2023-03-16T01:14:44.464Z,42.86
2023-03-16T01:15:44.476Z,45.28
2023-03-16T01:16:44.459Z,44.31
2023-03-16T01:17:44.427Z,43.34
2023-03-16T01:18:44.422Z,45.12
2023-03-16T01:19:44.414Z,50.27
2023-03-16T01:20:44.404Z,45.76
2023-03-16T01:21:44.395Z,44.15
2023-03-16T01:22:44.409Z,44.31
2023-03-16T01:23:44.430Z,47.21
2023-03-16T01:24:44.357Z,44.15
2023-03-16T01:25:44.348Z,45.60
2023-03-16T01:26:44.373Z,44.15
2023-03-16T01:27:44.333Z,45.92
2023-03-16T01:28:44.330Z,45.76
2023-03-16T01:29:44.325Z,45.28
2023-03-16T01:30:44.340Z,49.79
2023-03-16T01:31:44.309Z,46.41
2023-03-16T01:32:44.331Z,48.50
2023-03-16T01:33:44.279Z,46.57
2023-03-16T01:34:44.276Z,46.41
2023-03-16T01:35:44.274Z,50.11
2023-03-16T01:36:44.240Z,46.89
2023-03-16T01:37:44.249Z,44.63
2023-03-16T01:38:44.229Z,43.02
2023-03-16T01:39:44.205Z,44.15
2023-03-16T01:40:44.217Z,43.34
2023-03-16T01:41:44.204Z,44.15
2023-03-16T01:42:44.202Z,44.96
2023-03-16T01:43:44.187Z,44.79
2023-03-16T01:44:44.160Z,44.15
2023-03-16T01:45:44.148Z,44.31
2023-03-16T01:46:44.155Z,45.92
2023-03-16T01:47:44.149Z,49.15
2023-03-16T01:48:44.109Z,55.91
2023-03-16T01:49:44.098Z,47.05
2023-03-16T01:50:45.095Z,43.83
2023-03-16T01:51:44.087Z,44.79
2023-03-16T01:52:44.094Z,46.25
2023-03-16T01:53:44.070Z,45.12
2023-03-16T01:54:44.061Z,45.44
2023-03-16T01:55:44.045Z,45.12
2023-03-16T01:56:44.038Z,45.28
2023-03-16T01:57:44.040Z,48.02
2023-03-16T01:58:44.043Z,48.02
2023-03-16T01:59:44.003Z,45.92
2023-03-16T02:00:43.995Z,45.76
2023-03-16T02:01:44.021Z,45.28
2023-03-16T02:02:44.002Z,47.21
2023-03-16T02:03:43.986Z,46.73
2023-03-16T02:04:44.012Z,44.63
2023-03-16T02:05:43.953Z,44.31
2023-03-16T02:06:43.942Z,43.67
2023-03-16T02:07:43.946Z,46.41
2023-03-16T02:08:43.917Z,46.57
2023-03-16T02:09:43.901Z,48.34
2023-03-16T02:10:43.912Z,47.70
2023-03-16T02:11:43.909Z,48.66
2023-03-16T02:12:43.884Z,48.34
2023-03-16T02:13:43.902Z,48.66
2023-03-16T02:14:43.876Z,46.57
2023-03-16T02:15:43.958Z,48.18
2023-03-16T02:16:43.860Z,48.34
2023-03-16T02:17:43.881Z,46.57
2023-03-16T02:18:43.813Z,47.70
2023-03-16T02:19:43.860Z,48.34
2023-03-16T02:20:43.810Z,46.57
2023-03-16T02:21:43.792Z,47.70
2023-03-16T02:22:43.824Z,50.76
2023-03-16T02:23:43.773Z,48.18
2023-03-16T02:24:43.781Z,48.02
2023-03-16T02:25:43.762Z,46.08
2023-03-16T02:26:43.743Z,45.28
2023-03-16T02:27:43.743Z,45.76
2023-03-16T02:28:43.743Z,45.28
2023-03-16T02:29:43.728Z,46.89
2023-03-16T02:30:43.801Z,48.34
2023-03-16T02:31:43.696Z,50.43
2023-03-16T02:32:43.709Z,49.79
2023-03-16T02:33:43.683Z,47.86
2023-03-16T02:34:43.674Z,49.15
2023-03-16T02:35:43.667Z,48.18
2023-03-16T02:36:43.660Z,49.31
2023-03-16T02:37:43.642Z,48.50
2023-03-16T02:38:43.640Z,48.98
2023-03-16T02:39:43.607Z,49.79
2023-03-16T02:40:43.601Z,50.92
2023-03-16T02:41:43.604Z,47.86
2023-03-16T02:42:43.576Z,50.76
2023-03-16T02:43:43.569Z,44.63
2023-03-16T02:44:43.561Z,44.63
2023-03-16T02:45:43.572Z,43.99
2023-03-16T02:46:43.732Z,46.25
2023-03-16T02:47:43.552Z,46.57
2023-03-16T02:48:43.523Z,45.60
2023-03-16T02:49:43.516Z,46.89
2023-03-16T02:50:43.502Z,47.53
2023-03-16T02:51:43.488Z,45.92
2023-03-16T02:52:43.506Z,49.31
2023-03-16T02:53:43.462Z,45.28
2023-03-16T02:54:43.456Z,46.08
2023-03-16T02:55:43.456Z,45.60
2023-03-16T02:56:43.427Z,45.28
2023-03-16T02:57:43.429Z,44.47
2023-03-16T02:58:43.435Z,45.28
2023-03-16T02:59:43.414Z,44.15
2023-03-16T03:00:43.408Z,45.12
2023-03-16T03:01:43.389Z,47.21
2023-03-16T03:02:43.469Z,44.31
2023-03-16T03:03:43.390Z,44.47
2023-03-16T03:04:43.349Z,43.83
2023-03-16T03:05:43.339Z,44.96
2023-03-16T03:06:43.345Z,45.28
2023-03-16T03:07:43.332Z,47.70
2023-03-16T03:08:43.322Z,46.25
2023-03-16T03:09:43.322Z,46.25
2023-03-16T03:10:43.293Z,46.57
2023-03-16T03:11:43.294Z,49.31
2023-03-16T03:12:43.268Z,50.43
2023-03-16T03:13:43.258Z,45.60
2023-03-16T03:14:43.262Z,44.47
2023-03-16T03:15:43.236Z,44.79
2023-03-16T03:16:43.283Z,48.82
2023-03-16T03:17:43.256Z,49.63
2023-03-16T03:18:43.206Z,47.21
2023-03-16T03:19:43.204Z,45.28
2023-03-16T03:20:43.200Z,46.08
2023-03-16T03:21:43.181Z,48.34
2023-03-16T03:22:43.172Z,49.63
2023-03-16T03:23:43.156Z,49.47
2023-03-16T03:24:43.156Z,45.12
2023-03-16T03:25:43.155Z,48.66
2023-03-16T03:26:43.128Z,49.79
2023-03-16T03:27:43.173Z,47.86
2023-03-16T03:28:43.096Z,45.44
2023-03-16T03:29:43.113Z,45.76
2023-03-16T03:30:43.087Z,45.92
2023-03-16T03:31:43.179Z,45.60
2023-03-16T03:32:43.139Z,49.63
2023-03-16T03:33:43.065Z,47.05
2023-03-16T03:34:43.056Z,48.50
2023-03-16T03:35:43.068Z,50.27
2023-03-16T03:36:43.038Z,48.34
2023-03-16T03:37:43.029Z,48.66
2023-03-16T03:38:43.003Z,49.47
2023-03-16T03:39:42.998Z,50.11
2023-03-16T03:40:42.980Z,51.72
2023-03-16T03:41:42.994Z,46.41
2023-03-16T03:42:42.970Z,50.92
2023-03-16T03:43:42.971Z,52.21
2023-03-16T03:44:42.946Z,54.46
2023-03-16T03:45:43.017Z,49.95
2023-03-16T03:46:43.088Z,47.21
2023-03-16T03:47:42.923Z,48.02
2023-03-16T03:48:42.919Z,52.05
2023-03-16T03:49:42.886Z,48.98
2023-03-16T03:50:42.881Z,47.05
2023-03-16T03:51:42.889Z,45.60
2023-03-16T03:52:42.849Z,47.86
2023-03-16T03:53:42.885Z,50.92
2023-03-16T03:54:42.870Z,48.18
2023-03-16T03:55:42.830Z,48.66
2023-03-16T03:56:42.818Z,49.31
2023-03-16T03:57:42.824Z,55.43
2023-03-16T03:58:42.809Z,54.46
2023-03-16T03:59:42.798Z,49.79
2023-03-16T04:00:42.785Z,49.95
2023-03-16T04:01:42.771Z,51.40
2023-03-16T04:02:42.889Z,53.98
2023-03-16T04:03:45.107Z,54.95
2023-03-16T04:04:42.757Z,52.21
2023-03-16T04:05:42.722Z,54.95
2023-03-16T04:06:42.733Z,54.95
2023-03-16T04:07:42.725Z,53.50
2023-03-16T04:08:42.691Z,52.69
2023-03-16T04:09:42.703Z,50.43
2023-03-16T04:10:42.683Z,50.92
2023-03-16T04:11:42.665Z,56.07
2023-03-16T04:12:42.678Z,55.27
2023-03-16T04:13:42.672Z,52.05
2023-03-16T04:14:42.645Z,54.46
2023-03-16T04:15:42.631Z,54.95
2023-03-16T04:16:42.645Z,52.85
2023-03-16T04:17:42.609Z,55.27
2023-03-16T04:18:42.606Z,52.05
2023-03-16T04:19:42.588Z,53.82
2023-03-16T04:20:42.607Z,53.66
2023-03-16T04:21:42.578Z,51.40
2023-03-16T04:22:43.582Z,52.85
2023-03-16T04:23:42.556Z,51.24
2023-03-16T04:24:42.553Z,52.53
2023-03-16T04:25:42.539Z,53.82
2023-03-16T04:26:42.508Z,55.43
2023-03-16T04:27:43.521Z,51.40
2023-03-16T04:28:42.495Z,50.11
2023-03-16T04:29:42.490Z,52.37
2023-03-16T04:30:42.534Z,54.14
2023-03-16T04:31:42.520Z,51.56
2023-03-16T04:32:42.508Z,55.43
2023-03-16T04:33:42.458Z,58.65
2023-03-16T04:34:42.451Z,56.24
2023-03-16T04:35:42.472Z,55.43
2023-03-16T04:36:42.430Z,53.17
2023-03-16T04:37:42.447Z,55.27
2023-03-16T04:38:42.406Z,57.20
2023-03-16T04:39:42.403Z,56.72
2023-03-16T04:40:42.383Z,54.95
2023-03-16T04:41:42.380Z,56.56
2023-03-16T04:42:42.376Z,57.36
2023-03-16T04:43:42.356Z,55.27
2023-03-16T04:44:42.358Z,55.27
2023-03-16T04:45:42.321Z,52.69
2023-03-16T04:46:42.367Z,55.91
2023-03-16T04:47:42.327Z,56.07
2023-03-16T04:48:42.289Z,56.72
2023-03-16T04:49:42.296Z,54.95
2023-03-16T04:50:42.285Z,57.20
2023-03-16T04:51:42.290Z,56.07
2023-03-16T04:52:42.250Z,56.07
2023-03-16T04:53:42.255Z,55.59
2023-03-16T04:54:42.243Z,54.30
2023-03-16T04:55:42.232Z,55.91
2023-03-16T04:56:42.220Z,55.75
2023-03-16T04:57:42.218Z,53.33
2023-03-16T04:58:42.208Z,57.36
2023-03-16T04:59:42.199Z,55.91
2023-03-16T05:00:42.181Z,55.75
2023-03-16T05:01:42.203Z,54.79
2023-03-16T05:02:42.173Z,54.95
2023-03-16T05:03:42.138Z,54.62
2023-03-16T05:04:42.149Z,56.24
2023-03-16T05:05:42.157Z,58.17
2023-03-16T05:06:42.139Z,57.69
2023-03-16T05:07:42.109Z,59.14
2023-03-16T05:08:42.096Z,57.52
2023-03-16T05:09:42.103Z,54.62
2023-03-16T05:10:42.077Z,57.69
2023-03-16T05:11:42.060Z,55.43
2023-03-16T05:12:42.060Z,55.27
2023-03-16T05:13:42.086Z,56.24
2023-03-16T05:14:42.043Z,57.04
2023-03-16T05:15:42.146Z,55.11
2023-03-16T05:16:42.037Z,55.59
2023-03-16T05:17:42.028Z,57.20
2023-03-16T05:18:42.017Z,54.95
2023-03-16T05:19:41.993Z,57.04
2023-03-16T05:20:41.986Z,56.40
2023-03-16T05:21:41.978Z,55.75
2023-03-16T05:22:41.961Z,57.20
2023-03-16T05:23:41.955Z,55.11
2023-03-16T05:24:41.950Z,54.95
2023-03-16T05:25:41.935Z,54.14
2023-03-16T05:26:41.921Z,52.69
2023-03-16T05:27:41.893Z,56.72
2023-03-16T05:28:41.899Z,56.40
2023-03-16T05:29:41.901Z,54.95
2023-03-16T05:30:41.886Z,57.52
2023-03-16T05:31:41.909Z,57.52
2023-03-16T05:32:41.924Z,55.75
2023-03-16T05:33:41.850Z,58.17
2023-03-16T05:34:41.852Z,57.20
2023-03-16T05:35:41.842Z,56.07
2023-03-16T05:36:41.816Z,55.91
2023-03-16T05:37:41.811Z,58.81
2023-03-16T05:38:41.797Z,57.36
2023-03-16T05:39:41.794Z,57.85
2023-03-16T05:40:41.788Z,57.69
2023-03-16T05:41:41.774Z,57.69
2023-03-16T05:42:41.756Z,58.97
2023-03-16T05:43:41.764Z,58.17
2023-03-16T05:44:41.791Z,56.72
2023-03-16T05:45:41.726Z,58.65
2023-03-16T05:46:41.793Z,56.72
2023-03-16T05:47:41.719Z,58.01
2023-03-16T05:48:41.721Z,56.07
2023-03-16T05:49:41.694Z,55.91
2023-03-16T05:50:41.673Z,58.17
2023-03-16T05:51:41.672Z,56.07
2023-03-16T05:52:41.667Z,57.04
2023-03-16T05:53:41.660Z,57.52
2023-03-16T05:54:41.646Z,58.01
2023-03-16T05:55:41.635Z,58.65
2023-03-16T05:56:41.620Z,58.81
2023-03-16T05:57:41.610Z,58.65
2023-03-16T05:58:41.617Z,58.17
2023-03-16T05:59:41.589Z,58.33
2023-03-16T06:00:41.565Z,57.04
2023-03-16T06:01:41.562Z,56.40
2023-03-16T06:02:41.600Z,56.40
2023-03-16T06:03:41.585Z,58.01
2023-03-16T06:04:41.540Z,56.40
2023-03-16T06:05:41.533Z,52.85
2023-03-16T06:06:41.520Z,54.79
2023-03-16T06:07:41.497Z,56.72
2023-03-16T06:08:41.531Z,57.20
2023-03-16T06:09:41.487Z,56.07
2023-03-16T06:10:41.488Z,58.65
2023-03-16T06:11:41.476Z,55.59
2023-03-16T06:12:41.460Z,54.46
2023-03-16T06:13:41.448Z,56.56
2023-03-16T06:14:41.426Z,54.46
2023-03-16T06:15:41.438Z,55.75
2023-03-16T06:16:41.437Z,53.50
2023-03-16T06:17:41.409Z,57.20
2023-03-16T06:18:41.404Z,55.27
2023-03-16T06:19:41.377Z,56.88
2023-03-16T06:20:41.383Z,55.11
2023-03-16T06:21:41.414Z,57.36
2023-03-16T06:22:41.340Z,55.91
2023-03-16T06:23:41.327Z,55.43
2023-03-16T06:24:41.327Z,55.27
2023-03-16T06:25:41.323Z,55.75
2023-03-16T06:26:41.289Z,55.27
2023-03-16T06:27:41.287Z,53.82
2023-03-16T06:28:41.271Z,54.95
2023-03-16T06:29:41.278Z,55.11
2023-03-16T06:30:41.268Z,53.50
2023-03-16T06:31:41.359Z,52.69
2023-03-16T06:32:41.261Z,51.40
2023-03-16T06:33:41.218Z,56.24
2023-03-16T06:34:41.203Z,55.27
2023-03-16T06:35:41.236Z,54.30
2023-03-16T06:36:41.187Z,53.33
2023-03-16T06:37:41.169Z,55.43
2023-03-16T06:38:41.166Z,55.43
2023-03-16T06:39:41.172Z,56.24
2023-03-16T06:40:41.140Z,55.59
2023-03-16T06:41:41.134Z,55.91
2023-03-16T06:42:41.146Z,53.82
2023-03-16T06:43:41.106Z,56.07
2023-03-16T06:44:41.120Z,54.62
2023-03-16T06:45:41.135Z,55.11
2023-03-16T06:46:41.080Z,55.43
2023-03-16T06:47:41.091Z,54.30
2023-03-16T06:48:41.070Z,54.62
2023-03-16T06:49:41.062Z,56.07
2023-03-16T06:50:41.044Z,55.91
2023-03-16T06:51:41.037Z,53.98
2023-03-16T06:52:41.006Z,53.66
2023-03-16T06:53:41.008Z,54.14
2023-03-16T06:54:41.017Z,51.08
2023-03-16T06:55:40.983Z,51.72
2023-03-16T06:56:40.975Z,53.98
2023-03-16T06:57:40.973Z,51.72
2023-03-16T06:58:40.947Z,52.69
2023-03-16T06:59:40.954Z,51.24
2023-03-16T07:00:40.947Z,55.75
2023-03-16T07:01:40.928Z,53.66
2023-03-16T07:02:40.944Z,55.91
2023-03-16T07:03:40.903Z,55.43
2023-03-16T07:04:41.042Z,54.79
2023-03-16T07:05:40.889Z,56.07
2023-03-16T07:06:40.878Z,54.14
2023-03-16T07:07:40.869Z,53.66
2023-03-16T07:08:40.844Z,50.92
2023-03-16T07:09:41.870Z,51.72
2023-03-16T07:10:41.835Z,53.66
2023-03-16T07:11:40.813Z,53.50
2023-03-16T07:12:40.798Z,53.33
2023-03-16T07:13:40.802Z,55.27
2023-03-16T07:14:40.788Z,54.95
2023-03-16T07:15:40.779Z,52.05
2023-03-16T07:16:40.820Z,55.11
2023-03-16T07:17:40.762Z,53.66
2023-03-16T07:18:40.734Z,54.14
2023-03-16T07:19:40.740Z,54.14
2023-03-16T07:20:40.698Z,53.17
2023-03-16T07:21:40.715Z,50.11
2023-03-16T07:22:40.714Z,55.59
2023-03-16T07:23:40.682Z,54.46
2023-03-16T07:24:40.676Z,53.17
2023-03-16T07:25:40.682Z,49.63
2023-03-16T07:26:40.643Z,55.11
2023-03-16T07:27:40.636Z,53.17
2023-03-16T07:28:40.656Z,49.31
2023-03-16T07:29:40.605Z,53.82
2023-03-16T07:30:45.922Z,56.56
2023-03-16T07:31:41.626Z,53.01
2023-03-16T07:32:40.615Z,55.59
2023-03-16T07:33:40.591Z,55.11
2023-03-16T07:34:40.591Z,55.11
2023-03-16T07:35:40.579Z,56.07
2023-03-16T07:36:40.566Z,53.33
2023-03-16T07:37:40.578Z,54.79
2023-03-16T07:38:40.527Z,56.07
2023-03-16T07:39:40.528Z,55.43
2023-03-16T07:40:40.511Z,54.79
2023-03-16T07:41:40.491Z,52.05
2023-03-16T07:42:40.480Z,52.21
2023-03-16T07:43:40.473Z,55.27
2023-03-16T07:44:40.470Z,51.88
2023-03-16T07:45:40.508Z,54.30
2023-03-16T07:46:40.447Z,52.53
2023-03-16T07:47:40.432Z,53.98
2023-03-16T07:48:40.426Z,53.17
2023-03-16T07:49:40.402Z,53.50
2023-03-16T07:50:40.389Z,53.66
2023-03-16T07:51:40.396Z,49.95
2023-03-16T07:52:40.366Z,50.43
2023-03-16T07:53:40.364Z,51.24
2023-03-16T07:54:40.367Z,49.95
2023-03-16T07:55:40.332Z,53.33
2023-03-16T07:56:48.699Z,50.76
2023-03-16T07:57:42.335Z,50.43
2023-03-16T07:58:40.309Z,52.37
2023-03-16T07:59:40.316Z,52.05
2023-03-16T08:00:40.291Z,51.56
2023-03-16T08:01:40.298Z,51.24
2023-03-16T08:02:40.317Z,51.24
2023-03-16T08:03:40.323Z,51.08
2023-03-16T08:04:40.249Z,50.76
2023-03-16T08:05:40.228Z,51.72
2023-03-16T08:06:40.220Z,51.72
2023-03-16T08:07:40.222Z,52.53
2023-03-16T08:08:40.207Z,51.72
2023-03-16T08:09:40.189Z,48.02
2023-03-16T08:10:40.181Z,49.63
2023-03-16T08:11:40.168Z,53.50
2023-03-16T08:12:40.244Z,52.21
2023-03-16T08:13:40.141Z,53.01
2023-03-16T08:14:40.142Z,50.60
2023-03-16T08:15:40.211Z,53.01
2023-03-16T08:16:40.135Z,53.17
2023-03-16T08:17:40.130Z,55.43
2023-03-16T08:18:40.089Z,50.60
2023-03-16T08:19:40.089Z,53.66
2023-03-16T08:20:40.104Z,53.50
2023-03-16T08:21:57.502Z,50.76
2023-03-16T08:22:42.061Z,50.92
2023-03-16T08:23:40.046Z,52.05
2023-03-16T08:24:40.045Z,53.01
2023-03-16T08:25:40.044Z,51.72
2023-03-16T08:26:40.041Z,52.69
2023-03-16T08:27:40.028Z,50.43
2023-03-16T08:28:40.076Z,53.33
2023-03-16T08:29:39.988Z,53.66
2023-03-16T08:30:40.024Z,52.37
2023-03-16T08:31:40.074Z,50.60
2023-03-16T08:32:40.103Z,51.88
2023-03-16T08:33:39.949Z,53.33
2023-03-16T08:34:40.008Z,51.56
2023-03-16T08:35:39.989Z,53.82
2023-03-16T08:36:39.926Z,46.89
2023-03-16T08:37:39.898Z,51.88
2023-03-16T08:38:39.930Z,53.17
2023-03-16T08:39:39.894Z,50.60
2023-03-16T08:40:39.860Z,51.24
2023-03-16T08:41:39.882Z,53.66
2023-03-16T08:42:39.874Z,50.60
2023-03-16T08:43:39.827Z,53.33
2023-03-16T08:44:39.858Z,50.92
2023-03-16T08:45:39.832Z,52.05
2023-03-16T08:46:39.899Z,52.05
2023-03-16T08:47:39.797Z,51.72
2023-03-16T08:48:39.786Z,50.76
2023-03-16T08:49:39.789Z,53.33
2023-03-16T08:50:39.766Z,53.17
2023-03-16T08:51:39.764Z,53.66
2023-03-16T08:52:40.777Z,50.76
2023-03-16T08:53:39.724Z,54.62
2023-03-16T08:54:39.728Z,52.21
2023-03-16T08:55:39.738Z,53.01
2023-03-16T08:56:39.715Z,54.14
2023-03-16T08:57:39.723Z,50.76
2023-03-16T08:58:39.679Z,51.72
2023-03-16T08:59:39.669Z,54.30
2023-03-16T09:00:39.702Z,52.53
2023-03-16T09:01:39.729Z,51.08
2023-03-16T09:02:39.639Z,50.43
2023-03-16T09:03:39.641Z,50.60
2023-03-16T09:04:39.684Z,49.95
2023-03-16T09:05:39.614Z,50.43
2023-03-16T09:06:39.590Z,48.98
2023-03-16T09:07:39.607Z,54.14
2023-03-16T09:08:39.603Z,52.85
2023-03-16T09:09:39.580Z,53.66
2023-03-16T09:10:39.571Z,51.72
2023-03-16T09:11:39.559Z,51.88
2023-03-16T09:12:39.554Z,49.79
2023-03-16T09:13:39.513Z,50.27
2023-03-16T09:14:39.522Z,53.82
2023-03-16T09:15:39.503Z,54.62
2023-03-16T09:16:40.586Z,53.50
2023-03-16T09:17:39.488Z,54.95
2023-03-16T09:18:39.494Z,52.85
2023-03-16T09:19:54.428Z,51.08
2023-03-16T09:20:41.481Z,51.88
2023-03-16T09:21:39.444Z,54.46
2023-03-16T09:22:39.457Z,52.05
2023-03-16T09:23:39.447Z,53.66
2023-03-16T09:24:39.414Z,53.17
2023-03-16T09:25:39.405Z,53.98
2023-03-16T09:26:39.393Z,49.47
2023-03-16T09:27:39.389Z,53.17
2023-03-16T09:28:39.368Z,54.62
2023-03-16T09:29:39.364Z,54.95
2023-03-16T09:30:39.362Z,49.31
2023-03-16T09:31:39.417Z,51.40
2023-03-16T09:32:39.353Z,50.11
2023-03-16T09:33:39.312Z,51.24
2023-03-16T09:34:39.359Z,52.05
2023-03-16T09:35:39.352Z,52.53
2023-03-16T09:36:39.304Z,52.53
2023-03-16T09:37:45.630Z,51.40
2023-03-16T09:38:41.271Z,52.53
2023-03-16T09:39:39.271Z,49.31
2023-03-16T09:40:39.258Z,49.31
2023-03-16T09:41:39.242Z,50.11
2023-03-16T09:42:39.249Z,52.85
2023-03-16T09:43:39.225Z,49.15
2023-03-16T09:44:39.209Z,51.24
2023-03-16T09:45:39.237Z,51.08
2023-03-16T09:46:39.185Z,50.43
2023-03-16T09:47:39.163Z,50.11
2023-03-16T09:48:39.161Z,49.79
2023-03-16T09:49:39.195Z,54.14
2023-03-16T09:50:48.378Z,51.88
2023-03-16T09:51:41.147Z,52.21
2023-03-16T09:52:39.118Z,52.69
2023-03-16T09:53:39.165Z,49.15
2023-03-16T09:54:39.113Z,50.76
2023-03-16T09:55:39.099Z,51.56
2023-03-16T09:56:39.066Z,52.69
2023-03-16T09:57:39.066Z,52.53
2023-03-16T09:58:39.049Z,49.47
2023-03-16T09:59:39.039Z,52.05
2023-03-16T10:00:39.042Z,51.72
2023-03-16T10:01:39.017Z,49.95
2023-03-16T10:02:39.028Z,53.33
2023-03-16T10:03:39.007Z,53.01
2023-03-16T10:04:38.982Z,52.05
2023-03-16T10:05:38.969Z,50.43
2023-03-16T10:06:38.949Z,51.08
2023-03-16T10:07:38.966Z,53.01
2023-03-16T10:08:38.961Z,49.47
2023-03-16T10:09:38.919Z,50.76
2023-03-16T10:10:38.915Z,50.76
2023-03-16T10:11:39.903Z,52.05
2023-03-16T10:12:39.006Z,50.27
2023-03-16T10:13:38.885Z,49.15
2023-03-16T10:14:38.984Z,52.53
2023-03-16T10:15:38.860Z,52.53
2023-03-16T10:16:38.891Z,46.41
2023-03-16T10:17:38.836Z,53.66
2023-03-16T10:18:38.846Z,52.69
2023-03-16T10:19:38.844Z,49.47
2023-03-16T10:20:38.804Z,49.15
2023-03-16T10:21:38.797Z,49.63
2023-03-16T10:22:39.795Z,50.92
2023-03-16T10:23:40.855Z,50.11
2023-03-16T10:24:39.745Z,52.85
2023-03-16T10:25:38.766Z,51.24
2023-03-16T10:26:38.716Z,51.40
2023-03-16T10:27:38.728Z,51.88
2023-03-16T10:28:38.716Z,48.82
2023-03-16T10:29:38.727Z,50.27
2023-03-16T10:30:38.801Z,48.98
2023-03-16T10:31:38.761Z,51.40
2023-03-16T10:32:38.750Z,50.60
2023-03-16T10:33:38.639Z,53.50
2023-03-16T10:34:38.634Z,51.24
2023-03-16T10:35:38.650Z,53.50
2023-03-16T10:37:10.556Z,52.05
2023-03-16T10:37:38.581Z,49.95
2023-03-16T10:38:38.664Z,53.17
2023-03-16T10:39:38.608Z,52.05
2023-03-16T10:40:38.601Z,52.37
2023-03-16T10:41:38.621Z,49.95
2023-03-16T10:42:38.568Z,54.30
2023-03-16T10:43:38.582Z,51.72
2023-03-16T10:44:38.592Z,53.66
2023-03-16T10:45:38.560Z,53.50
2023-03-16T10:46:38.668Z,50.27
2023-03-16T10:47:38.521Z,51.08
2023-03-16T10:48:38.476Z,49.31
2023-03-16T10:49:38.509Z,49.31
2023-03-16T10:50:38.467Z,49.31
2023-03-16T10:51:38.453Z,52.85
2023-03-16T10:52:38.439Z,51.88
2023-03-16T10:53:38.449Z,50.60
2023-03-16T10:54:38.431Z,50.43
2023-03-16T10:55:38.459Z,50.27
2023-03-16T10:56:38.430Z,49.95
2023-03-16T10:57:38.360Z,51.24
2023-03-16T10:58:38.369Z,50.11
2023-03-16T10:59:38.374Z,50.92
2023-03-16T11:00:38.354Z,52.21
2023-03-16T11:01:38.410Z,52.53
2023-03-16T11:02:38.310Z,53.33
2023-03-16T11:03:38.335Z,52.69
2023-03-16T11:04:39.308Z,51.56
2023-03-16T11:05:38.303Z,48.98
2023-03-16T11:06:38.277Z,49.63
2023-03-16T11:07:38.284Z,49.31
2023-03-16T11:08:38.284Z,52.05
2023-03-16T11:09:38.295Z,50.76
2023-03-16T11:10:49.501Z,52.53
2023-03-16T11:11:40.268Z,53.82
2023-03-16T11:12:38.196Z,54.14
2023-03-16T11:13:38.215Z,49.15
2023-03-16T11:14:38.200Z,50.92
2023-03-16T11:15:38.179Z,51.08
2023-03-16T11:16:38.194Z,51.08
2023-03-16T11:17:38.190Z,53.01
2023-03-16T11:18:38.185Z,47.86
2023-03-16T11:19:38.099Z,46.89
2023-03-16T11:20:38.133Z,51.56
2023-03-16T11:21:38.095Z,49.15
2023-03-16T11:22:38.104Z,51.72
2023-03-16T11:23:38.100Z,52.85
2023-03-16T11:24:38.086Z,49.47
2023-03-16T11:25:38.064Z,49.63
2023-03-16T11:26:38.060Z,50.92
2023-03-16T11:27:38.073Z,50.27
2023-03-16T11:28:38.043Z,50.60
2023-03-16T11:29:38.046Z,49.95
2023-03-16T11:30:38.018Z,50.11
2023-03-16T11:31:37.979Z,49.31
2023-03-16T11:32:38.046Z,53.17
2023-03-16T11:33:38.036Z,53.82
2023-03-16T11:34:37.972Z,51.08
2023-03-16T11:35:41.950Z,51.56
2023-03-16T11:36:39.959Z,51.88
2023-03-16T11:37:37.937Z,49.31
2023-03-16T11:38:37.935Z,50.76
2023-03-16T11:39:37.948Z,51.40
2023-03-16T11:40:37.895Z,50.27
2023-03-16T11:41:37.885Z,50.27
2023-03-16T11:42:37.873Z,54.30
2023-03-16T11:43:37.887Z,53.82
2023-03-16T11:44:37.822Z,53.17
2023-03-16T11:45:37.891Z,53.82
2023-03-16T11:46:37.872Z,52.37
2023-03-16T11:47:37.814Z,51.24
2023-03-16T11:48:37.823Z,49.95
2023-03-16T11:49:37.837Z,51.24
2023-03-16T11:50:37.832Z,49.47
2023-03-16T11:51:37.772Z,50.92
2023-03-16T11:52:37.794Z,52.05
2023-03-16T11:53:37.729Z,52.05
2023-03-16T11:54:37.765Z,48.98
2023-03-16T11:55:37.742Z,50.60
2023-03-16T11:56:37.723Z,51.08
2023-03-16T11:57:37.716Z,49.63
2023-03-16T11:58:37.677Z,52.05
2023-03-16T11:59:37.724Z,52.21
2023-03-16T12:00:37.674Z,51.40
2023-03-16T12:01:39.396Z,50.92
2023-03-16T12:02:37.771Z,53.17
2023-03-16T12:03:37.714Z,52.05
2023-03-16T12:04:37.628Z,53.01
2023-03-16T12:05:37.665Z,51.88
2023-03-16T12:06:37.595Z,51.24
2023-03-16T12:07:37.573Z,49.47
2023-03-16T12:08:37.629Z,51.88
2023-03-16T12:09:37.540Z,51.40
2023-03-16T12:10:37.566Z,52.05
2023-03-16T12:11:37.561Z,52.37
2023-03-16T12:12:37.551Z,49.79
2023-03-16T12:13:37.552Z,50.60
2023-03-16T12:14:37.541Z,50.27
2023-03-16T12:15:37.508Z,52.05
2023-03-16T12:16:48.816Z,53.66
2023-03-16T12:17:39.473Z,50.60
2023-03-16T12:18:37.505Z,51.40
2023-03-16T12:19:37.486Z,54.46
2023-03-16T12:20:37.453Z,51.40
2023-03-16T12:21:37.419Z,52.05
2023-03-16T12:22:37.438Z,51.08
2023-03-16T12:23:37.447Z,50.76
2023-03-16T12:24:37.385Z,51.08
2023-03-16T12:25:37.432Z,50.92
2023-03-16T12:26:37.462Z,49.31
2023-03-16T12:27:37.369Z,48.34
2023-03-16T12:28:37.355Z,49.95
2023-03-16T12:29:37.375Z,50.92
2023-03-16T12:30:37.325Z,52.05
2023-03-16T12:31:37.336Z,55.43
2023-03-16T12:32:37.418Z,51.56
2023-03-16T12:33:37.328Z,53.01
2023-03-16T12:34:37.282Z,51.40
2023-03-16T12:35:37.295Z,53.66
2023-03-16T12:36:37.321Z,50.92
2023-03-16T12:37:37.230Z,51.40
2023-03-16T12:38:37.272Z,51.88
2023-03-16T12:39:37.275Z,52.37
2023-03-16T12:40:37.192Z,51.88
2023-03-16T12:41:37.223Z,54.14
2023-03-16T12:42:37.200Z,54.46
2023-03-16T12:43:37.197Z,53.66
2023-03-16T12:44:37.173Z,53.17
2023-03-16T12:45:37.247Z,53.01
2023-03-16T12:46:37.178Z,54.79
2023-03-16T12:47:37.136Z,53.50
2023-03-16T12:48:37.130Z,55.11
2023-03-16T12:49:37.177Z,50.76
2023-03-16T12:50:37.118Z,50.11
2023-03-16T12:51:37.106Z,48.82
2023-03-16T12:52:37.075Z,49.95